Time;durP1;ratioP1;P1;durP2;ratioP2;P2;SDS_P1;SDS_P2;PMS_P1;PMS_P2;Temp;Humidity;BMP_temperature;BMP_pressure;BME280_temperature;BME280_humidity;BME280_pressure;Samples;Min_cycle;Max_cycle;Signal;HPM_P1;HPM_P2
2023/07/19 00:00:00;;;;;;;7.85;3.05;;;;;;;26.69;86.80;100309.41;21221976;27;20129;-75
2023/07/19 00:10:23;;;;;;;8.23;3.28;;;;;;;26.62;86.29;100308.00;21191151;27;20066;-75
2023/07/19 00:20:48;;;;;;;6.70;2.80;;;;;;;26.55;85.27;100292.13;21219890;27;20043;-75
2023/07/19 00:31:10;;;;;;;8.40;3.47;;;;;;;26.54;85.02;100286.78;21234987;27;20051;-75
2023/07/19 00:41:34;;;;;;;8.88;3.20;;;;;;;26.50;85.46;100285.22;21237516;27;20372;-76
2023/07/19 00:51:57;;;;;;;10.45;3.10;;;;;;;26.46;85.38;100280.94;21221403;27;20142;-76
2023/07/19 01:02:22;;;;;;;7.75;3.00;;;;;;;26.30;87.18;100283.66;21235566;27;20141;-75
2023/07/19 01:12:44;;;;;;;10.32;2.88;;;;;;;26.26;86.77;100271.25;21232547;27;20415;-75
2023/07/19 01:23:08;;;;;;;8.13;3.42;;;;;;;26.17;89.97;100269.91;21219808;27;20071;-75
2023/07/19 01:33:31;;;;;;;9.98;2.97;;;;;;;26.12;93.51;100269.28;21217757;27;20499;-77
2023/07/19 01:43:55;;;;;;;8.75;3.30;;;;;;;25.99;96.66;100278.22;21217082;27;20115;-76
2023/07/19 01:54:18;;;;;;;6.53;3.03;;;;;;;25.92;97.75;100287.63;21201459;27;20081;-76
2023/07/19 02:04:42;;;;;;;10.75;3.63;;;;;;;25.85;100.00;100268.16;21215753;27;20051;-76
2023/07/19 02:15:06;;;;;;;9.55;4.07;;;;;;;25.85;100.00;100270.84;21213610;27;20055;-75
2023/07/19 02:25:34;;;;;;;10.13;3.42;;;;;;;25.83;100.00;100267.34;21214716;27;20051;-75
2023/07/19 02:35:58;;;;;;;9.85;4.00;;;;;;;25.81;100.00;100280.06;21226697;27;20043;-75
2023/07/19 02:46:23;;;;;;;10.93;3.88;;;;;;;25.78;100.00;100291.97;21227741;27;20055;-75
2023/07/19 02:56:46;;;;;;;8.25;3.40;;;;;;;25.81;100.00;100280.06;21225580;27;20043;-76
2023/07/19 03:07:10;;;;;;;14.73;3.78;;;;;;;25.81;100.00;100293.59;21225148;27;20092;-75
2023/07/19 03:17:32;;;;;;;9.82;3.55;;;;;;;25.84;100.00;100297.97;21205469;27;20078;-75
2023/07/19 03:27:57;;;;;;;9.68;4.22;;;;;;;25.83;100.00;100297.09;21209146;27;20133;-75
2023/07/19 03:38:20;;;;;;;11.20;3.72;;;;;;;25.92;100.00;100309.25;21205103;27;20066;-75
2023/07/19 03:48:48;;;;;;;10.52;3.75;;;;;;;26.18;100.00;100314.97;21206904;27;20050;-75
2023/07/19 03:59:12;;;;;;;10.70;3.70;;;;;;;26.55;100.00;100315.63;21207360;27;20066;-76
2023/07/19 04:09:38;;;;;;;10.25;3.50;;;;;;;27.02;100.00;100325.56;21206554;27;20671;-75
2023/07/19 04:20:00;;;;;;;9.30;3.65;;;;;;;27.52;100.00;100334.25;21204502;27;20058;-75
2023/07/19 04:30:26;;;;;;;12.18;3.35;;;;;;;28.03;100.00;100332.81;21197126;27;20039;-77
2023/07/19 04:40:35;;;;;;;9.02;3.22;;;;;;;28.52;100.00;100336.00;21212867;27;20051;-75
2023/07/19 04:51:01;;;;;;;9.07;3.53;;;;;;;29.02;95.71;100331.78;21203430;28;20058;-75
2023/07/19 05:01:25;;;;;;;13.52;3.30;;;;;;;29.47;90.08;100343.25;21203492;27;20486;-75
2023/07/19 05:11:49;;;;;;;8.40;3.22;;;;;;;29.85;81.61;100341.44;21206449;27;20046;-74
2023/07/19 05:22:12;;;;;;;8.95;2.55;;;;;;;30.38;75.07;100347.63;21215515;27;20071;-76
2023/07/19 05:32:36;;;;;;;10.57;2.78;;;;;;;30.94;64.37;100357.03;21211415;27;20047;-75
2023/07/19 05:42:59;;;;;;;10.60;2.92;;;;;;;31.75;58.58;100367.22;21231521;27;20115;-75
2023/07/19 05:53:06;;;;;;;8.48;2.75;;;;;;;32.49;53.66;100374.88;21247669;27;20047;-75
2023/07/19 06:03:29;;;;;;;9.77;3.22;;;;;;;33.46;50.13;100363.09;21217185;27;20078;-76
2023/07/19 06:13:50;;;;;;;9.25;2.80;;;;;;;34.00;44.12;100361.03;21243202;27;20051;-76
2023/07/19 06:24:13;;;;;;;11.18;2.70;;;;;;;34.49;40.32;100344.81;21200300;27;20075;-76
2023/07/19 06:34:38;;;;;;;7.78;2.40;;;;;;;34.92;38.72;100358.25;21207842;27;20053;-76
2023/07/19 06:45:01;;;;;;;8.10;2.80;;;;;;;35.07;37.08;100362.31;21225414;27;20043;-76
2023/07/19 06:55:26;;;;;;;10.75;2.42;;;;;;;35.66;35.88;100369.56;21225967;27;20054;-76
2023/07/19 07:05:49;;;;;;;8.07;2.58;;;;;;;35.28;35.41;100360.34;21211831;27;20050;-75
2023/07/19 07:16:13;;;;;;;7.28;2.53;;;;;;;35.85;35.76;100364.94;21208727;27;20112;-75
2023/07/19 07:26:36;;;;;;;11.38;3.28;;;;;;;35.75;36.24;100360.47;21203291;27;20391;-75
2023/07/19 07:37:00;;;;;;;7.07;3.10;;;;;;;36.31;34.76;100374.22;21218913;27;20049;-75
2023/07/19 07:47:22;;;;;;;11.87;3.40;;;;;;;36.58;34.31;100377.00;21207524;27;20043;-75
2023/07/19 07:57:46;;;;;;;6.60;2.40;;;;;;;36.46;33.34;100369.97;21220986;27;20142;-75
2023/07/19 08:08:09;;;;;;;12.90;2.83;;;;;;;36.13;32.34;100370.50;21221602;27;20101;-76
2023/07/19 08:18:33;;;;;;;7.15;2.78;;;;;;;36.26;32.58;100377.44;21189729;27;20671;-76
2023/07/19 08:28:56;;;;;;;8.18;2.97;;;;;;;36.26;33.41;100379.31;21214203;28;20104;-75
2023/07/19 08:39:20;;;;;;;9.13;3.10;;;;;;;36.78;32.72;100372.28;21204252;28;20074;-75
2023/07/19 08:49:44;;;;;;;10.53;3.17;;;;;;;37.02;32.34;100369.78;21230544;27;20111;-76
2023/07/19 09:00:11;;;;;;;10.05;3.28;;;;;;;37.60;30.84;100372.16;21222697;27;20047;-76
2023/07/19 09:10:34;;;;;;;8.88;2.80;;;;;;;37.37;30.18;100362.59;21231783;27;20648;-76
2023/07/19 09:21:03;;;;;;;14.63;3.97;;;;;;;36.79;30.82;100362.13;21224329;27;20096;-76
2023/07/19 09:31:07;;;;;;;13.65;2.90;;;;;;;37.27;29.99;100359.09;21215379;27;20078;-77
2023/07/19 09:41:32;;;;;;;11.45;3.15;;;;;;;37.86;29.71;100351.00;21223040;27;20043;-76
2023/07/19 09:51:57;;;;;;;10.07;2.75;;;;;;;38.06;29.62;100342.53;21212811;27;20054;-76
2023/07/19 10:02:23;;;;;;;14.43;3.30;;;;;;;38.48;29.13;100346.22;21210710;27;20078;-76
2023/07/19 10:12:47;;;;;;;8.52;2.78;;;;;;;38.40;28.14;100331.50;21206939;27;20066;-76
2023/07/19 10:23:15;;;;;;;7.55;2.53;;;;;;;38.19;28.90;100334.69;21210861;27;20035;-76
2023/07/19 10:33:37;;;;;;;10.10;3.38;;;;;;;38.07;29.58;100319.44;21224704;27;20051;-75
2023/07/19 10:44:02;;;;;;;11.35;3.38;;;;;;;38.21;29.20;100343.63;21209201;27;20047;-76
2023/07/19 10:54:25;;;;;;;15.23;7.90;;;;;;;38.52;28.92;100333.84;21221537;27;20517;-75
2023/07/19 11:04:50;;;;;;;11.40;3.47;;;;;;;38.74;28.98;100323.19;21222469;27;20044;-77
2023/07/19 11:15:12;;;;;;;12.68;3.15;;;;;;;38.91;29.49;100322.22;21202075;27;20051;-76
2023/07/19 11:25:39;;;;;;;12.18;3.00;;;;;;;38.84;30.04;100318.41;21221471;27;20047;-77
2023/07/19 11:36:02;;;;;;;10.35;2.90;;;;;;;38.32;30.73;100320.44;21208043;27;20047;-77
2023/07/19 11:46:26;;;;;;;11.93;3.80;;;;;;;37.80;31.51;100307.53;21207817;27;20055;-76
2023/07/19 11:56:48;;;;;;;9.57;3.30;;;;;;;37.53;31.09;100315.91;21207728;27;20051;-76
2023/07/19 12:07:12;;;;;;;10.73;2.92;;;;;;;37.28;31.17;100294.72;21207738;27;20070;-76
2023/07/19 12:17:24;;;;;;;12.57;3.17;;;;;;;36.99;30.72;100298.53;21217747;27;20406;-77
2023/07/19 12:27:52;;;;;;;9.80;3.45;;;;;;;37.09;29.91;100281.91;21202954;27;20104;-76
2023/07/19 12:38:15;;;;;;;10.60;3.00;;;;;;;37.39;29.99;100288.94;21204612;28;20395;-76
2023/07/19 12:48:40;;;;;;;8.55;3.03;;;;;;;37.55;30.43;100294.56;21218854;28;20039;-77
2023/07/19 12:59:03;;;;;;;11.45;3.88;;;;;;;37.26;30.96;100282.97;21203769;28;20047;-76
2023/07/19 13:09:28;;;;;;;9.07;2.88;;;;;;;37.19;29.41;100266.22;21219289;28;20437;-77
2023/07/19 13:19:50;;;;;;;11.50;2.60;;;;;;;37.35;30.12;100266.34;21197813;28;20051;-76
2023/07/19 13:30:15;;;;;;;11.98;3.15;;;;;;;37.15;29.76;100255.69;21217596;27;20055;-76
2023/07/19 13:40:38;;;;;;;8.30;2.55;;;;;;;36.97;29.35;100256.53;21232982;27;20058;-76
2023/07/19 13:51:03;;;;;;;11.05;3.13;;;;;;;36.92;29.26;100253.38;21190672;27;20114;-76
2023/07/19 14:01:25;;;;;;;9.03;3.47;;;;;;;36.99;28.52;100243.47;21184305;27;20048;-75
2023/07/19 14:11:50;;;;;;;13.93;3.72;;;;;;;37.21;29.51;100241.28;21241810;27;20115;-76
2023/07/19 14:22:13;;;;;;;10.40;3.55;;;;;;;36.65;30.13;100246.06;21211615;27;20055;-75
2023/07/19 14:32:38;;;;;;;8.50;2.60;;;;;;;36.70;30.34;100234.59;21212283;27;20039;-75
2023/07/19 14:43:01;;;;;;;11.40;3.08;;;;;;;36.79;30.06;100235.53;21226723;27;20437;-76
2023/07/19 14:53:25;;;;;;;9.00;3.20;;;;;;;36.47;30.78;100238.78;21224941;27;20501;-75
2023/07/19 15:03:48;;;;;;;19.90;10.90;;;;;;;36.02;31.75;100227.75;21225358;27;20112;-75
2023/07/19 15:14:12;;;;;;;11.80;3.60;;;;;;;35.35;32.14;100235.19;21222218;27;20086;-75
2023/07/19 15:24:35;;;;;;;8.32;2.85;;;;;;;34.62;33.27;100225.63;21223379;27;20062;-75
2023/07/19 15:34:59;;;;;;;8.30;3.13;;;;;;;33.93;33.24;100216.50;21207551;27;20043;-74
2023/07/19 15:45:23;;;;;;;10.50;2.80;;;;;;;33.21;33.85;100224.75;21208141;27;20057;-74
2023/07/19 15:55:48;;;;;;;8.93;2.90;;;;;;;32.83;34.01;100217.06;21172720;27;20043;-74
2023/07/19 16:06:10;;;;;;;12.95;3.80;;;;;;;32.48;35.85;100224.66;21134323;27;20039;-76
2023/07/19 16:16:35;;;;;;;13.52;3.95;;;;;;;32.00;40.42;100225.84;21194052;27;20059;-75
2023/07/19 16:26:57;;;;;;;13.60;3.92;;;;;;;31.75;46.17;100241.63;21217887;27;20137;-75
2023/07/19 16:37:22;;;;;;;13.38;5.25;;;;;;;31.41;59.31;100248.88;21209466;28;20055;-76
2023/07/19 16:47:44;;;;;;;14.60;5.00;;;;;;;31.24;63.42;100252.94;21220049;28;20100;-76
2023/07/19 16:58:08;;;;;;;11.48;4.00;;;;;;;30.98;60.43;100262.25;21218633;28;20372;-76
2023/07/19 17:08:31;;;;;;;11.13;3.60;;;;;;;30.80;54.90;100259.94;21210837;27;20050;-76
2023/07/19 17:18:56;;;;;;;9.52;3.80;;;;;;;30.62;52.11;100255.88;21218737;27;20508;-76
2023/07/19 17:29:19;;;;;;;12.52;4.85;;;;;;;30.38;52.48;100257.72;21223864;27;20059;-76
2023/07/19 17:39:43;;;;;;;11.68;3.78;;;;;;;30.15;53.57;100261.25;21228909;27;20485;-77
2023/07/19 17:50:08;;;;;;;12.30;4.03;;;;;;;29.97;54.75;100260.75;21228908;27;20043;-76
2023/07/19 18:00:32;;;;;;;12.30;4.22;;;;;;;29.86;55.69;100282.41;21230506;27;20079;-76
2023/07/19 18:10:54;;;;;;;13.07;4.28;;;;;;;29.69;57.97;100280.88;21213688;27;20049;-76
2023/07/19 18:21:19;;;;;;;11.70;3.63;;;;;;;29.60;59.07;100287.00;21227186;27;20048;-77
2023/07/19 18:31:42;;;;;;;8.70;3.63;;;;;;;29.47;61.60;100297.00;21213685;27;20051;-76
2023/07/19 18:42:08;;;;;;;14.45;3.75;;;;;;;29.38;63.15;100292.19;21213765;27;20132;-76
2023/07/19 18:52:30;;;;;;;13.95;4.50;;;;;;;29.25;67.29;100300.31;21226748;27;20082;-76
2023/07/19 19:02:54;;;;;;;16.70;4.18;;;;;;;29.16;69.54;100303.66;21211636;27;20240;-77
2023/07/19 19:13:17;;;;;;;14.05;4.43;;;;;;;29.07;70.74;100304.31;21211140;27;20072;-76
2023/07/19 19:23:42;;;;;;;13.02;4.30;;;;;;;28.99;73.14;100295.78;21225282;27;20059;-76
2023/07/19 19:34:06;;;;;;;14.23;5.38;;;;;;;28.86;77.56;100291.19;21220024;27;20047;-76
2023/07/19 19:44:30;;;;;;;12.73;4.25;;;;;;;28.72;82.70;100285.78;21223541;27;20138;-76
2023/07/19 19:54:32;;;;;;;14.60;4.80;;;;;;;28.66;83.03;100283.47;21236557;27;20693;-76
2023/07/19 20:04:57;;;;;;;11.13;4.30;;;;;;;28.57;84.61;100275.91;21222551;27;20047;-76
2023/07/19 20:15:19;;;;;;;14.77;5.18;;;;;;;28.54;83.08;100276.16;21205862;27;20503;-76
2023/07/19 20:25:45;;;;;;;11.18;4.82;;;;;;;28.46;84.79;100275.78;21221161;27;20356;-76
2023/07/19 20:36:09;;;;;;;12.45;5.38;;;;;;;28.43;82.47;100275.97;21204792;28;20145;-76
2023/07/19 20:46:34;;;;;;;16.67;4.55;;;;;;;28.25;87.02;100263.59;21234072;27;20466;-76
2023/07/19 20:56:57;;;;;;;13.30;4.90;;;;;;;28.18;88.79;100262.25;21236230;27;20445;-76
2023/07/19 21:07:22;;;;;;;8.63;4.47;;;;;;;28.14;88.23;100264.31;21171893;27;20503;-76
2023/07/19 21:17:45;;;;;;;11.52;4.68;;;;;;;28.10;88.16;100251.84;21173056;27;20062;-76
2023/07/19 21:28:10;;;;;;;11.40;5.15;;;;;;;28.01;89.27;100252.47;21216949;27;20043;-76
2023/07/19 21:38:33;;;;;;;13.85;5.82;;;;;;;27.88;89.97;100248.81;21163178;27;20051;-76
2023/07/19 21:48:57;;;;;;;11.82;4.72;;;;;;;27.84;89.14;100244.53;21141790;28;20043;-76
2023/07/19 21:59:08;;;;;;;12.63;5.50;;;;;;;27.66;90.12;100235.72;21125114;28;20044;-76
2023/07/19 22:09:32;;;;;;;13.55;4.75;;;;;;;27.52;90.97;100235.72;21137115;27;20048;-76
2023/07/19 22:19:55;;;;;;;9.25;4.38;;;;;;;27.49;89.44;100227.75;21193318;27;20055;-76
2023/07/19 22:30:20;;;;;;;13.35;5.22;;;;;;;27.50;88.49;100218.66;21225588;27;20043;-76
2023/07/19 22:40:43;;;;;;;11.27;5.15;;;;;;;27.37;89.15;100210.44;21225688;27;20059;-76
2023/07/19 22:50:47;;;;;;;13.02;4.75;;;;;;;27.27;89.33;100207.41;21217681;27;20047;-76
2023/07/19 23:01:10;;;;;;;10.90;4.40;;;;;;;27.21;90.75;100206.91;21214126;27;20380;-76
2023/07/19 23:11:38;;;;;;;12.23;5.32;;;;;;;26.87;94.68;100202.66;21222435;27;20417;-76
2023/07/19 23:22:01;;;;;;;13.23;5.18;;;;;;;26.86;93.76;100199.06;21211225;27;20142;-75
2023/07/19 23:32:26;;;;;;;12.25;5.30;;;;;;;26.66;95.35;100204.81;21208509;27;20054;-76
2023/07/19 23:42:49;;;;;;;11.60;4.78;;;;;;;26.40;97.56;100184.69;21222355;27;20128;-76
2023/07/19 23:53:14;;;;;;;10.73;5.18;;;;;;;26.55;95.43;100170.25;21201900;27;20043;-76
